Time;durP1;ratioP1;P1;durP2;ratioP2;P2;SDS_P1;SDS_P2;PMS_P1;PMS_P2;Temp;Humidity;BMP_temperature;BMP_pressure;BME280_temperature;BME280_humidity;BME280_pressure;Samples;Min_cycle;Max_cycle;Signal;HPM_P1;HPM_P2
2022/09/04 00:00:12;;;;;;;6.55;5.95;;;;;;;20.48;61.75;101078.78;3587878;39;20064;-64
2022/09/04 00:02:58;;;;;;;10.20;6.22;;;;;;;20.48;62.00;101077.91;3590242;39;20044;-65
2022/09/04 00:05:51;;;;;;;8.90;6.03;;;;;;;20.28;62.75;101050.72;3588799;39;20057;-65
2022/09/04 00:08:22;;;;;;;7.23;6.30;;;;;;;20.41;63.41;101094.06;3589897;39;20060;-67
2022/09/04 00:10:53;;;;;;;7.07;6.25;;;;;;;20.34;62.91;101099.28;3589747;39;20052;-66
2022/09/04 00:13:38;;;;;;;7.30;5.88;;;;;;;20.26;62.99;101084.66;3590701;39;20068;-65
2022/09/04 00:16:13;;;;;;;7.00;6.30;;;;;;;20.27;63.76;101100.91;3586277;39;20389;-65
2022/09/04 00:19:08;;;;;;;6.50;5.90;;;;;;;20.12;64.02;101077.84;3586947;39;20060;-66
2022/09/04 00:22:05;;;;;;;6.75;5.78;;;;;;;20.16;64.23;101101.06;3587114;39;20067;-65
2022/09/04 00:24:40;;;;;;;9.93;5.30;;;;;;;20.13;64.20;101091.31;3588350;39;20401;-65
2022/09/04 00:27:22;;;;;;;8.20;5.90;;;;;;;20.14;64.71;101106.69;3589399;39;20399;-65
2022/09/04 00:30:10;;;;;;;6.18;5.57;;;;;;;20.13;63.71;101104.97;3588747;39;20063;-65
2022/09/04 00:33:17;;;;;;;7.38;5.78;;;;;;;20.05;64.28;101104.88;3586585;39;20344;-64
2022/09/04 00:36:00;;;;;;;6.57;5.47;;;;;;;19.98;65.00;101103.75;3588554;39;20071;-64
2022/09/04 00:38:53;;;;;;;;;;;;;;;19.89;65.88;101112.84;3590280;39;20048;-66
2022/09/04 00:41:44;;;;;;;6.60;6.00;;;;;;;19.81;65.32;101099.06;3588577;39;19944;-66
2022/09/04 00:44:54;;;;;;;6.90;5.88;;;;;;;19.79;66.17;101101.94;3587389;39;20052;-65
2022/09/04 00:48:06;;;;;;;6.55;5.95;;;;;;;19.59;65.72;101084.72;3588544;39;20360;-65
2022/09/04 00:51:06;;;;;;;6.38;5.22;;;;;;;19.72;65.32;101114.44;3587667;39;20062;-67
2022/09/04 00:54:09;;;;;;;7.03;5.30;;;;;;;19.69;66.27;101112.00;3588071;39;20056;-65
2022/09/04 00:57:30;;;;;;;6.38;5.25;;;;;;;19.68;65.98;101124.78;3586690;39;20329;-65
2022/09/04 01:00:08;;;;;;;6.50;5.15;;;;;;;19.61;66.14;101109.13;3586764;39;20056;-66
2022/09/04 01:03:17;;;;;;;9.30;5.38;;;;;;;19.64;65.58;101126.09;3587596;39;20051;-66
2022/09/04 01:05:52;;;;;;;6.97;5.05;;;;;;;19.61;66.40;101123.63;3588157;39;20071;-66
2022/09/04 01:09:00;;;;;;;6.07;5.47;;;;;;;19.59;66.15;101119.31;3585706;39;20642;-66
2022/09/04 01:11:28;;;;;;;6.07;5.47;;;;;;;19.59;66.01;101125.63;3586768;39;20067;-65
2022/09/04 01:14:38;;;;;;;5.63;5.13;;;;;;;19.53;66.29;101131.66;3591459;39;20043;-65
2022/09/04 01:17:39;;;;;;;6.20;5.10;;;;;;;19.49;66.65;101139.28;3585625;39;20048;-65
2022/09/04 01:21:05;;;;;;;7.78;5.20;;;;;;;19.44;66.83;101143.44;3588151;39;20095;-67
2022/09/04 01:24:35;;;;;;;5.68;5.00;;;;;;;19.37;67.39;101154.06;3584792;39;20056;-67
2022/09/04 01:27:18;;;;;;;5.50;5.00;;;;;;;19.33;67.99;101154.50;3585524;39;20048;-67
2022/09/04 01:30:09;;;;;;;7.82;5.43;;;;;;;19.30;67.36;101152.06;3587203;39;20066;-66
2022/09/04 01:33:13;;;;;;;5.53;5.03;;;;;;;19.23;68.22;101152.63;3587668;39;20054;-65
2022/09/04 01:36:33;;;;;;;5.70;5.18;;;;;;;19.19;67.92;101156.66;3578506;39;20117;-65
2022/09/04 01:39:02;;;;;;;6.25;5.15;;;;;;;19.17;68.06;101158.66;3589593;39;20059;-64
2022/09/04 01:42:10;;;;;;;8.63;5.20;;;;;;;19.15;67.77;101148.91;3586664;39;20060;-65
2022/09/04 01:44:36;;;;;;;5.80;4.93;;;;;;;19.08;67.56;101145.88;3589884;39;20125;-66
2022/09/04 01:47:15;;;;;;;7.90;4.85;;;;;;;19.14;68.18;101152.63;3589598;39;20147;-65
2022/09/04 01:50:05;;;;;;;6.32;4.80;;;;;;;19.10;68.52;101157.50;3590948;39;20410;-64
2022/09/04 01:53:04;;;;;;;7.65;5.18;;;;;;;19.10;68.25;101162.97;3589784;39;20048;-65
2022/09/04 01:55:59;;;;;;;4.93;4.53;;;;;;;19.11;68.28;101159.22;3589301;39;20378;-66
2022/09/04 01:58:55;;;;;;;5.65;5.15;;;;;;;19.09;68.97;101163.94;3587999;39;20238;-65
2022/09/04 02:02:18;;;;;;;6.90;5.20;;;;;;;18.99;69.40;101163.06;3585543;39;20060;-66
2022/09/04 02:05:00;;;;;;;7.97;5.40;;;;;;;18.94;70.04;101170.84;3589431;39;20351;-65
2022/09/04 02:08:22;;;;;;;7.45;5.07;;;;;;;18.92;69.93;101170.09;3588850;39;20969;-66
2022/09/04 02:11:01;;;;;;;5.60;4.95;;;;;;;18.85;69.42;101163.50;3557697;40;20475;-66
2022/09/04 02:13:42;;;;;;;5.72;4.70;;;;;;;18.95;69.81;101181.56;3588300;39;20063;-66
2022/09/04 02:16:41;;;;;;;5.50;5.00;;;;;;;18.92;70.28;101181.00;3587555;39;20378;-66
2022/09/04 02:19:51;;;;;;;6.68;4.90;;;;;;;18.85;69.85;101180.69;3587170;39;20060;-67
2022/09/04 02:22:44;;;;;;;5.38;4.97;;;;;;;18.67;70.72;101166.00;3559542;40;20685;-66
2022/09/04 02:25:28;;;;;;;5.70;5.20;;;;;;;18.76;71.07;101187.84;3559279;40;20124;-66
2022/09/04 02:28:32;;;;;;;6.13;5.57;;;;;;;18.76;70.68;101190.56;3583956;39;20051;-65
2022/09/04 02:31:14;;;;;;;6.80;5.30;;;;;;;18.77;70.21;101192.31;3588980;39;20151;-65
2022/09/04 02:34:02;;;;;;;5.60;5.10;;;;;;;18.78;70.51;101193.16;3590155;39;20052;-65
2022/09/04 02:37:08;;;;;;;5.50;5.00;;;;;;;18.77;70.76;101192.31;3592209;39;20059;-67
2022/09/04 02:39:45;;;;;;;5.85;5.35;;;;;;;18.75;71.19;101197.03;3591444;39;20056;-66
2022/09/04 02:42:38;;;;;;;5.57;5.05;;;;;;;18.75;70.91;101199.75;3589693;39;20137;-65
2022/09/04 02:45:06;;;;;;;7.40;5.63;;;;;;;18.76;71.16;101203.31;3590875;39;20047;-65
2022/09/04 02:48:02;;;;;;;8.30;5.70;;;;;;;18.77;71.30;101202.31;3591056;39;20102;-64
2022/09/04 02:51:12;;;;;;;8.00;6.15;;;;;;;18.77;71.54;101203.19;3590937;39;20056;-64
2022/09/04 02:54:02;;;;;;;6.60;5.88;;;;;;;18.78;71.81;101207.63;3589222;39;20089;-65
2022/09/04 02:56:38;;;;;;;7.15;6.45;;;;;;;18.81;71.42;101211.06;3592902;39;20056;-64
2022/09/04 02:59:48;;;;;;;7.20;6.43;;;;;;;18.82;72.16;101215.53;3589750;39;20044;-65
2022/09/04 03:02:36;;;;;;;8.27;6.65;;;;;;;18.76;71.77;101212.34;3590545;39;20112;-66
2022/09/04 03:05:22;;;;;;;10.30;6.53;;;;;;;18.78;72.13;101218.53;3590205;39;20051;-66
2022/09/04 03:08:07;;;;;;;7.10;6.38;;;;;;;18.77;72.16;101216.81;3592760;39;20083;-67
2022/09/04 03:11:09;;;;;;;7.20;6.50;;;;;;;18.74;72.32;101216.22;3592419;39;20050;-67
2022/09/04 03:13:52;;;;;;;6.78;6.18;;;;;;;18.74;72.73;101221.66;3591169;39;20051;-66
2022/09/04 03:17:06;;;;;;;7.93;7.03;;;;;;;18.69;72.77;101222.06;3588249;39;20485;-66
2022/09/04 03:19:46;;;;;;;7.25;6.55;;;;;;;18.64;72.84;101210.69;3590056;39;20065;-66
2022/09/04 03:23:08;;;;;;;7.53;6.50;;;;;;;18.64;73.11;101221.59;3590020;39;20064;-67
2022/09/04 03:26:25;;;;;;;6.90;6.30;;;;;;;18.62;72.69;101233.63;3588878;39;20055;-66
2022/09/04 03:29:20;;;;;;;7.13;6.40;;;;;;;18.53;72.49;101210.81;3589626;39;20048;-66
2022/09/04 03:32:18;;;;;;;7.43;6.60;;;;;;;18.58;73.96;101222.13;3589033;39;20048;-66
2022/09/04 03:35:04;;;;;;;7.00;6.30;;;;;;;18.55;73.03;101227.84;3590544;39;20056;-66
2022/09/04 03:38:04;;;;;;;7.78;6.97;;;;;;;18.47;73.75;101225.81;3588076;39;20339;-65
2022/09/04 03:40:45;;;;;;;8.43;6.78;;;;;;;18.48;74.17;101232.97;3588301;39;20385;-66
2022/09/04 03:43:29;;;;;;;7.38;6.53;;;;;;;18.46;74.22;101228.69;3586979;39;20064;-66
2022/09/04 03:46:36;;;;;;;8.07;6.68;;;;;;;18.42;74.09;101227.22;3586362;39;20352;-65
2022/09/04 03:49:13;;;;;;;7.22;6.43;;;;;;;18.42;74.45;101225.34;3587887;39;20036;-66
2022/09/04 03:51:41;;;;;;;8.63;6.72;;;;;;;18.41;74.27;101233.69;3590586;39;20086;-64
2022/09/04 03:54:58;;;;;;;7.53;6.82;;;;;;;18.38;74.38;101231.22;3587616;39;20055;-66
2022/09/04 03:57:48;;;;;;;7.25;6.60;;;;;;;18.39;74.64;101241.97;3587210;39;20051;-67
2022/09/04 04:00:20;;;;;;;7.13;6.43;;;;;;;18.37;74.41;101240.41;3586384;39;20052;-66
2022/09/04 04:03:22;;;;;;;7.28;6.57;;;;;;;18.37;75.09;101240.41;3588248;39;20144;-66
2022/09/04 04:06:35;;;;;;;7.60;6.80;;;;;;;18.31;74.50;101242.66;3592091;39;20056;-66
2022/09/04 04:09:18;;;;;;;7.45;6.75;;;;;;;18.30;74.70;101240.94;3585716;39;20036;-64
2022/09/04 04:12:27;;;;;;;8.55;7.10;;;;;;;18.29;75.50;101250.06;3589932;39;20064;-66
2022/09/04 04:15:07;;;;;;;7.72;6.93;;;;;;;18.24;75.66;101252.34;3586751;39;20048;-66
2022/09/04 04:17:59;;;;;;;7.43;6.72;;;;;;;18.26;75.85;101255.78;3587313;39;20066;-65
2022/09/04 04:20:55;;;;;;;7.05;6.35;;;;;;;18.23;75.56;101257.91;3588257;39;20060;-66
2022/09/04 04:23:58;;;;;;;6.93;6.30;;;;;;;18.21;76.12;101263.50;3588630;39;20138;-66
2022/09/04 04:26:51;;;;;;;8.02;6.82;;;;;;;18.22;75.60;101265.22;3587671;39;20170;-67
2022/09/04 04:29:46;;;;;;;7.75;7.03;;;;;;;18.20;75.54;101261.75;3587246;39;20056;-66
2022/09/04 04:32:26;;;;;;;11.15;7.20;;;;;;;18.20;75.49;101272.66;3584762;39;20044;-66
2022/09/04 04:35:30;;;;;;;8.20;7.00;;;;;;;18.15;75.79;101269.47;3589583;39;20158;-66
2022/09/04 04:38:38;;;;;;;8.05;7.25;;;;;;;18.13;76.43;101276.91;3586782;39;20052;-64
2022/09/04 04:42:04;;;;;;;7.85;7.00;;;;;;;18.13;75.40;101274.19;3571516;39;20371;-64
2022/09/04 04:48:42;;;;;;;8.40;7.50;;;;;;;18.08;76.09;101274.59;3586936;39;20128;-62
2022/09/04 04:51:40;;;;;;;7.53;6.82;;;;;;;18.09;76.72;101270.00;3589359;39;20386;-62
2022/09/04 04:54:56;;;;;;;8.52;7.63;;;;;;;18.11;76.22;101270.75;3589394;39;20093;-62
2022/09/04 04:57:44;;;;;;;8.45;7.55;;;;;;;18.11;76.10;101281.63;3587110;39;20044;-63
2022/09/04 05:00:26;;;;;;;11.00;7.50;;;;;;;18.11;77.05;101281.63;3587752;39;20592;-63
2022/09/04 05:03:26;;;;;;;8.07;7.28;;;;;;;18.11;76.52;101278.91;3587800;39;20054;-63
2022/09/04 05:06:11;;;;;;;8.45;7.60;;;;;;;18.09;76.14;101294.50;3588016;39;20047;-63
2022/09/04 05:09:04;;;;;;;8.38;7.57;;;;;;;18.11;76.70;101297.97;3590377;39;20376;-64
2022/09/04 05:11:52;;;;;;;10.10;8.30;;;;;;;18.12;76.01;101298.81;3587095;39;20090;-61
2022/09/04 05:14:53;;;;;;;9.95;8.18;;;;;;;18.11;76.66;101300.69;3587147;39;20181;-62
2022/09/04 05:17:47;;;;;;;7.82;7.13;;;;;;;18.12;76.77;101304.25;3586524;39;20063;-62
2022/09/04 05:20:49;;;;;;;9.85;8.30;;;;;;;18.15;76.37;101314.88;3583420;39;20048;-64
2022/09/04 05:23:49;;;;;;;8.65;7.65;;;;;;;18.17;76.54;101311.00;3587503;39;20060;-63
2022/09/04 05:26:31;;;;;;;10.75;8.02;;;;;;;18.20;76.45;101318.91;3588035;39;20145;-61
2022/09/04 05:29:19;;;;;;;9.38;8.48;;;;;;;18.25;76.32;101330.28;3587361;39;20048;-63
2022/09/04 05:32:00;;;;;;;10.77;8.25;;;;;;;18.31;76.10;101332.47;3589279;39;20052;-63
2022/09/04 05:34:56;;;;;;;9.07;8.25;;;;;;;18.34;75.85;101339.50;3585261;39;20400;-63
2022/09/04 05:38:09;;;;;;;13.07;8.77;;;;;;;18.32;76.88;101336.06;3588080;39;20064;-62
2022/09/04 05:41:04;;;;;;;9.60;8.45;;;;;;;18.41;75.68;101345.28;3587872;39;20485;-62
2022/09/04 05:43:59;;;;;;;10.88;8.50;;;;;;;18.50;75.72;101339.03;3589255;39;20287;-64
2022/09/04 05:47:18;;;;;;;9.77;8.25;;;;;;;18.52;76.21;101342.47;3587822;39;20048;-63
2022/09/04 05:50:19;;;;;;;8.57;7.78;;;;;;;18.58;75.65;101347.38;3587745;39;20055;-64
2022/09/04 05:53:09;;;;;;;9.43;8.18;;;;;;;18.59;75.54;101349.13;3588373;39;20051;-63
2022/09/04 05:56:14;;;;;;;9.52;7.95;;;;;;;18.68;75.01;101361.94;3590213;39;20047;-62
2022/09/04 05:59:10;;;;;;;9.45;8.48;;;;;;;18.69;76.20;101369.13;3590106;39;20075;-64
2022/09/04 06:02:27;;;;;;;9.65;8.75;;;;;;;18.70;75.72;101368.09;3587625;39;20056;-63
2022/09/04 06:05:28;;;;;;;9.45;8.55;;;;;;;18.69;75.62;101368.25;3584103;39;20062;-64
2022/09/04 06:08:50;;;;;;;12.82;9.63;;;;;;;18.72;75.78;101371.59;3589602;39;20058;-63
2022/09/04 06:12:00;;;;;;;9.27;8.38;;;;;;;18.76;75.02;101372.19;3590353;39;20067;-63
2022/09/04 06:14:37;;;;;;;9.55;8.32;;;;;;;18.79;75.40;101383.69;3588782;39;20048;-62
2022/09/04 06:17:33;;;;;;;10.20;8.38;;;;;;;18.87;74.99;101373.97;3588639;39;20066;-62
2022/09/04 06:20:18;;;;;;;9.93;8.40;;;;;;;18.93;75.44;101381.59;3587683;39;20145;-62
2022/09/04 06:23:04;;;;;;;10.05;9.00;;;;;;;18.97;74.70;101381.19;3588899;39;20050;-63
2022/09/04 06:25:50;;;;;;;10.20;8.98;;;;;;;19.03;74.44;101385.25;3587627;39;20303;-63
2022/09/04 06:29:01;;;;;;;10.23;9.13;;;;;;;19.08;74.36;101387.56;3589617;39;20092;-65
2022/09/04 06:31:55;;;;;;;9.77;8.77;;;;;;;19.16;74.74;101385.88;3587572;39;20040;-62
2022/09/04 06:34:39;;;;;;;10.00;9.00;;;;;;;19.24;74.51;101388.75;3587968;39;20067;-62
2022/09/04 06:37:32;;;;;;;;;;;;;;;19.28;74.84;101385.75;3588150;39;20063;-62
2022/09/04 06:40:06;;;;;;;11.60;9.35;;;;;;;19.38;73.62;101389.41;3588668;39;19943;-62
2022/09/04 06:43:26;;;;;;;10.55;9.55;;;;;;;19.44;73.45;101405.19;3589044;39;20382;-62
2022/09/04 06:46:21;;;;;;;10.50;9.40;;;;;;;19.53;73.56;101395.31;3581889;39;20578;-61
2022/09/04 06:48:55;;;;;;;10.02;8.85;;;;;;;19.65;73.41;101397.81;3587698;39;20043;-62
2022/09/04 06:52:18;;;;;;;11.13;8.30;;;;;;;19.80;73.39;101395.56;3587147;39;20365;-62
2022/09/04 06:54:59;;;;;;;9.60;8.57;;;;;;;20.00;71.97;101396.44;3589409;39;20055;-62
2022/09/04 06:58:16;;;;;;;10.02;8.68;;;;;;;20.14;71.36;101401.50;3588291;39;20058;-62
2022/09/04 07:00:57;;;;;;;10.38;9.07;;;;;;;20.36;71.22;101392.16;3588306;39;20058;-62
2022/09/04 07:04:19;;;;;;;9.77;8.88;;;;;;;20.55;70.79;101390.44;3589871;39;20402;-63
2022/09/04 07:07:19;;;;;;;9.95;8.55;;;;;;;20.71;70.12;101398.91;3587590;39;20079;-62
2022/09/04 07:10:06;;;;;;;10.88;8.65;;;;;;;20.84;69.15;101401.31;3589039;39;20075;-62
2022/09/04 07:12:58;;;;;;;11.50;8.95;;;;;;;21.02;69.19;101409.59;3586675;39;20348;-62
2022/09/04 07:15:59;;;;;;;9.48;8.45;;;;;;;21.17;67.87;101418.19;3591349;39;20048;-61
2022/09/04 07:18:55;;;;;;;11.02;9.30;;;;;;;21.29;67.79;101411.53;3591164;39;20052;-66
2022/09/04 07:22:10;;;;;;;12.63;8.95;;;;;;;21.50;66.88;101424.97;3587669;39;20375;-66
2022/09/04 07:25:01;;;;;;;12.38;9.27;;;;;;;21.69;66.69;101421.28;3587406;39;20133;-65
2022/09/04 07:27:45;;;;;;;10.18;9.07;;;;;;;21.80;66.16;101410.13;3590997;39;20374;-66
2022/09/04 07:30:16;;;;;;;10.57;8.63;;;;;;;22.12;65.32;101430.66;3589130;39;20334;-66
2022/09/04 07:33:17;;;;;;;12.98;9.35;;;;;;;22.20;64.35;101428.03;3588350;39;20125;-66
2022/09/04 07:36:17;;;;;;;10.30;9.15;;;;;;;22.30;63.90;101423.34;3587704;39;20048;-66
2022/09/04 07:39:31;;;;;;;13.65;9.48;;;;;;;22.42;63.33;101424.84;3588495;39;20129;-66
2022/09/04 07:42:41;;;;;;;11.60;9.32;;;;;;;22.57;63.41;101440.72;3578861;39;20078;-66
2022/09/04 07:45:32;;;;;;;12.45;10.38;;;;;;;22.51;63.35;101447.66;3554683;40;20073;-67
2022/09/04 07:48:20;;;;;;;11.63;9.30;;;;;;;22.48;63.74;101442.50;3588305;39;20623;-66
2022/09/04 07:51:09;;;;;;;10.85;9.25;;;;;;;22.47;64.13;101446.28;3583595;39;20125;-67
2022/09/04 07:54:07;;;;;;;13.40;10.30;;;;;;;22.61;63.94;101453.06;3585915;39;20050;-66
2022/09/04 07:57:22;;;;;;;10.40;9.30;;;;;;;22.87;63.17;101448.50;3589351;39;20060;-66
2022/09/04 08:00:14;;;;;;;10.30;9.15;;;;;;;23.08;62.00;101428.94;3589504;39;20059;-66
2022/09/04 08:02:55;;;;;;;12.38;10.55;;;;;;;23.50;61.04;101446.50;3588472;39;20055;-66
2022/09/04 08:05:39;;;;;;;15.23;9.98;;;;;;;23.74;61.09;101446.63;3588276;39;20054;-65
2022/09/04 08:09:03;;;;;;;13.27;10.68;;;;;;;24.04;59.70;101447.06;3588637;39;20056;-67
2022/09/04 08:12:07;;;;;;;12.52;9.95;;;;;;;24.30;59.25;101453.31;3588475;39;20129;-65
2022/09/04 08:14:52;;;;;;;13.55;9.18;;;;;;;24.52;58.19;101456.47;3588821;39;20083;-67
2022/09/04 08:17:57;;;;;;;13.35;9.75;;;;;;;24.71;57.36;101466.28;3588490;39;20080;-67
2022/09/04 08:20:43;;;;;;;12.65;9.82;;;;;;;24.81;57.29;101468.84;3589898;39;20048;-67
2022/09/04 08:23:51;;;;;;;12.13;9.82;;;;;;;24.92;57.05;101463.84;3586176;39;20056;-66
2022/09/04 08:27:08;;;;;;;9.85;8.35;;;;;;;25.18;56.21;101474.69;3572141;39;20052;-66
2022/09/04 08:29:56;;;;;;;12.32;9.38;;;;;;;25.36;55.68;101474.44;3567415;40;20049;-66
2022/09/04 08:32:55;;;;;;;14.65;9.52;;;;;;;25.48;54.51;101469.44;3565446;40;20485;-66
2022/09/04 08:36:02;;;;;;;10.43;9.38;;;;;;;25.68;54.95;101483.66;3584118;39;20079;-67
2022/09/04 08:39:20;;;;;;;9.93;7.65;;;;;;;25.75;54.26;101487.38;3589059;39;20609;-67
2022/09/04 08:42:22;;;;;;;12.32;8.48;;;;;;;25.84;54.05;101485.50;3564255;39;21577;-65
2022/09/04 08:45:37;;;;;;;9.63;7.28;;;;;;;26.04;53.29;101486.81;3589031;39;20435;-65
2022/09/04 08:48:50;;;;;;;9.00;7.65;;;;;;;26.29;53.69;101487.53;3585869;39;20104;-66
2022/09/04 08:51:25;;;;;;;9.57;6.13;;;;;;;26.50;52.59;101488.78;3589077;39;20056;-67
2022/09/04 08:54:24;;;;;;;9.85;6.53;;;;;;;26.63;51.64;101486.25;3587298;39;20357;-66
2022/09/04 08:57:17;;;;;;;6.20;5.60;;;;;;;26.82;51.58;101490.41;3586576;39;20128;-66
2022/09/04 09:00:14;;;;;;;8.35;6.15;;;;;;;26.97;50.59;101493.22;3585945;39;20052;-67
2022/09/04 09:03:16;;;;;;;9.52;6.20;;;;;;;27.09;50.32;101495.34;3588560;39;20052;-67
2022/09/04 09:06:30;;;;;;;8.68;6.78;;;;;;;27.38;49.81;101493.72;3587510;39;20131;-66
2022/09/04 09:09:49;;;;;;;8.20;5.93;;;;;;;27.62;48.36;101491.72;3587559;39;20141;-66
2022/09/04 09:13:05;;;;;;;7.57;5.25;;;;;;;27.80;48.33;101496.88;3589261;39;20079;-65
2022/09/04 09:16:20;;;;;;;5.60;4.75;;;;;;;27.95;47.56;101493.06;3589628;39;20105;-67
2022/09/04 09:18:55;;;;;;;6.07;4.18;;;;;;;28.05;46.82;101491.91;3589722;39;20084;-66
2022/09/04 09:21:51;;;;;;;5.30;4.13;;;;;;;28.19;47.13;101488.22;3588263;39;20366;-67
2022/09/04 09:24:45;;;;;;;4.90;4.40;;;;;;;28.32;47.03;101488.38;3588176;39;20055;-67
2022/09/04 09:28:04;;;;;;;6.15;4.50;;;;;;;28.55;46.09;101476.31;3590841;39;20044;-67
2022/09/04 09:30:57;;;;;;;5.75;4.25;;;;;;;28.89;45.72;101476.44;3556557;40;20123;-66
2022/09/04 09:34:05;;;;;;;5.90;3.95;;;;;;;29.13;43.90;101474.31;3586575;39;20059;-66
2022/09/04 09:37:19;;;;;;;4.40;3.45;;;;;;;29.22;42.87;101489.72;3588234;39;20412;-66
2022/09/04 09:40:38;;;;;;;4.28;3.10;;;;;;;29.33;42.16;101491.91;3591300;39;20044;-65
2022/09/04 09:44:00;;;;;;;3.40;3.03;;;;;;;29.31;43.55;101482.09;3589189;39;20306;-67
2022/09/04 09:46:45;;;;;;;4.20;3.03;;;;;;;29.52;42.48;101492.25;3590867;39;20059;-66
2022/09/04 09:49:48;;;;;;;4.45;4.00;;;;;;;29.68;42.42;101494.72;3588799;39;20047;-65
2022/09/04 09:53:20;;;;;;;6.87;3.93;;;;;;;29.79;41.85;101488.59;3589724;39;20105;-68
2022/09/04 09:56:31;;;;;;;3.22;2.95;;;;;;;29.87;40.93;101500.56;3588690;39;20289;-65
2022/09/04 09:59:48;;;;;;;3.50;2.90;;;;;;;29.83;40.93;101497.34;3587128;39;20388;-66
2022/09/04 10:03:01;;;;;;;3.90;2.58;;;;;;;30.00;40.18;101503.41;3588750;39;20065;-66
2022/09/04 10:05:44;;;;;;;3.28;2.72;;;;;;;30.14;41.17;101502.41;3589477;39;20051;-66
2022/09/04 10:08:26;;;;;;;6.05;3.30;;;;;;;30.23;40.45;101500.34;3588793;39;20426;-66
2022/09/04 10:11:32;;;;;;;4.15;2.90;;;;;;;30.38;39.94;101508.47;3586649;39;20327;-66
2022/09/04 10:14:22;;;;;;;3.40;2.20;;;;;;;30.35;39.81;101490.31;3588205;39;20060;-66
2022/09/04 10:17:54;;;;;;;2.17;2.00;;;;;;;30.44;38.78;101499.31;3587483;39;20124;-66
2022/09/04 10:20:54;;;;;;;3.10;2.40;;;;;;;30.56;38.72;101503.19;3583551;39;20040;-66
2022/09/04 10:23:57;;;;;;;4.20;2.47;;;;;;;30.69;38.11;101505.97;3589264;39;20059;-66
2022/09/04 10:26:48;;;;;;;;;;;;;;;30.78;36.73;101495.56;3590983;39;20166;-65
2022/09/04 10:29:38;;;;;;;2.25;1.85;;;;;;;31.07;36.20;101491.50;3590301;39;19931;-66
2022/09/04 10:32:51;;;;;;;1.98;1.73;;;;;;;31.17;35.88;101497.47;3587608;39;20489;-65
2022/09/04 10:35:40;;;;;;;2.72;2.00;;;;;;;31.29;35.28;101507.94;3588518;39;20059;-66
2022/09/04 10:38:27;;;;;;;8.10;5.75;;;;;;;31.32;35.01;101499.19;3590390;39;20160;-65
2022/09/04 10:41:24;;;;;;;2.17;2.00;;;;;;;31.37;35.50;101494.72;3589428;39;20124;-66
2022/09/04 10:44:35;;;;;;;3.60;1.88;;;;;;;31.29;34.64;101497.69;3588304;39;20056;-65
2022/09/04 10:48:00;;;;;;;3.45;1.90;;;;;;;31.14;34.51;101500.69;3589750;39;20764;-66
2022/09/04 10:50:37;;;;;;;2.08;1.60;;;;;;;30.70;35.60;101504.94;3587187;39;20060;-67
2022/09/04 10:54:16;;;;;;;2.83;2.13;;;;;;;30.22;36.63;101506.94;3590966;39;20060;-66
2022/09/04 10:57:37;;;;;;;3.42;2.05;;;;;;;29.85;37.83;101503.56;3556935;40;20161;-66
2022/09/04 11:00:16;;;;;;;3.35;2.25;;;;;;;29.33;37.98;101453.13;3557388;40;20088;-65
2022/09/04 11:03:10;;;;;;;3.83;2.10;;;;;;;29.78;37.80;101494.34;3587476;39;20329;-65
2022/09/04 11:06:29;;;;;;;10.38;8.93;;;;;;;30.25;38.19;101496.25;3591873;39;20372;-66
2022/09/04 11:09:25;;;;;;;2.30;2.10;;;;;;;30.82;36.21;101487.66;3590628;39;20052;-66
2022/09/04 11:12:29;;;;;;;2.45;1.73;;;;;;;30.81;33.97;101494.28;3589693;39;20059;-66
2022/09/04 11:15:12;;;;;;;1.65;1.55;;;;;;;30.58;34.50;101495.50;3588636;39;20066;-66
2022/09/04 11:18:03;;;;;;;2.38;1.90;;;;;;;30.48;35.07;101495.03;3590668;39;20062;-66
2022/09/04 11:21:06;;;;;;;2.83;2.10;;;;;;;30.68;35.31;101495.09;3586467;39;20345;-66
2022/09/04 11:24:23;;;;;;;2.45;1.95;;;;;;;31.17;34.14;101499.41;3589877;39;20569;-67
2022/09/04 11:27:20;;;;;;;3.85;2.03;;;;;;;31.20;32.84;101494.25;3557764;40;20392;-67
2022/09/04 11:30:18;;;;;;;3.00;1.90;;;;;;;31.26;32.86;101502.81;3588691;39;20056;-66
2022/09/04 11:33:20;;;;;;;2.72;2.33;;;;;;;31.56;31.06;101492.97;3587375;39;20305;-66
2022/09/04 11:36:35;;;;;;;5.95;2.38;;;;;;;31.27;31.35;101493.41;3590172;39;20290;-67
2022/09/04 11:39:47;;;;;;;4.00;2.33;;;;;;;31.30;31.20;101492.97;3589102;39;20068;-66
2022/09/04 11:42:26;;;;;;;9.57;5.30;;;;;;;31.31;31.51;101494.69;3590595;39;20058;-65
2022/09/04 11:45:36;;;;;;;5.93;2.00;;;;;;;31.30;30.44;101496.59;3591525;39;20492;-66
2022/09/04 11:48:30;;;;;;;3.42;2.10;;;;;;;31.50;29.51;101490.22;3589646;39;20060;-66
2022/09/04 11:51:35;;;;;;;2.97;2.22;;;;;;;31.81;29.43;101500.56;3590121;39;20059;-67
2022/09/04 11:54:26;;;;;;;4.18;2.20;;;;;;;32.07;29.85;101497.75;3589046;39;20222;-66
2022/09/04 11:57:12;;;;;;;4.03;2.10;;;;;;;32.21;30.50;101489.31;3588926;39;20450;-66
2022/09/04 12:00:08;;;;;;;6.18;2.40;;;;;;;32.16;30.54;101497.47;3589142;39;20060;-66
2022/09/04 12:03:04;;;;;;;2.47;2.25;;;;;;;32.33;31.17;101493.09;3590799;39;20392;-66
2022/09/04 12:06:01;;;;;;;2.30;2.10;;;;;;;32.23;29.79;101498.31;3590216;39;20059;-66
2022/09/04 12:09:27;;;;;;;2.47;2.28;;;;;;;32.25;29.67;101501.69;3589613;39;20108;-66
2022/09/04 12:12:32;;;;;;;3.05;2.15;;;;;;;32.39;29.85;101496.94;3591013;39;20287;-66
2022/09/04 12:15:39;;;;;;;3.72;1.85;;;;;;;32.37;30.29;101489.66;3587990;39;20040;-67
2022/09/04 12:18:44;;;;;;;2.40;1.85;;;;;;;32.18;29.75;101500.91;3591141;39;20060;-66
2022/09/04 12:21:42;;;;;;;2.00;1.80;;;;;;;32.21;29.77;101503.22;3592304;39;20076;-65
2022/09/04 12:24:29;;;;;;;3.67;2.08;;;;;;;32.49;29.74;101512.09;3588772;39;20068;-66
2022/09/04 12:27:30;;;;;;;2.63;2.20;;;;;;;32.59;29.80;101506.88;3590199;39;20153;-66
2022/09/04 12:30:24;;;;;;;2.58;1.83;;;;;;;32.67;29.22;101507.69;3589269;39;20059;-66
2022/09/04 12:33:05;;;;;;;3.17;1.98;;;;;;;32.92;28.61;101511.38;3588157;39;20379;-66
2022/09/04 12:36:13;;;;;;;3.42;1.80;;;;;;;32.34;29.58;101505.94;3591234;39;20048;-66
2022/09/04 12:39:17;;;;;;;4.10;2.20;;;;;;;31.96;29.71;101498.41;3590787;39;20048;-66
2022/09/04 12:42:31;;;;;;;3.17;1.75;;;;;;;31.73;30.39;101498.06;3588196;39;20064;-65
2022/09/04 12:45:45;;;;;;;2.13;1.77;;;;;;;31.27;30.71;101510.91;3546115;40;20143;-64
2022/09/04 12:48:10;;;;;;;4.10;1.80;;;;;;;31.22;31.70;101513.50;3590196;39;20045;-66
2022/09/04 12:51:08;;;;;;;2.58;1.55;;;;;;;31.58;29.70;101501.94;3588557;39;20047;-66
2022/09/04 12:54:11;;;;;;;3.45;1.60;;;;;;;31.89;28.37;101508.72;3590478;39;20047;-65
2022/09/04 12:57:21;;;;;;;1.55;1.45;;;;;;;32.02;28.34;101502.25;3589408;39;20048;-66
2022/09/04 13:00:05;;;;;;;2.13;1.40;;;;;;;31.94;28.08;101495.03;3587701;39;20063;-66
2022/09/04 13:02:48;;;;;;;1.75;1.65;;;;;;;31.73;28.85;101506.41;3589121;39;20052;-66
2022/09/04 13:05:44;;;;;;;2.47;1.73;;;;;;;32.41;28.59;101512.31;3590000;39;20100;-66
2022/09/04 13:08:32;;;;;;;2.47;1.90;;;;;;;32.88;28.46;101509.25;3588169;39;20056;-66
2022/09/04 13:11:19;;;;;;;2.00;1.80;;;;;;;33.23;28.03;101509.63;3585902;39;20046;-65
2022/09/04 13:14:22;;;;;;;2.60;1.80;;;;;;;33.66;28.14;101522.75;3590793;39;20044;-66
2022/09/04 13:16:56;;;;;;;3.07;1.90;;;;;;;33.76;26.08;101520.25;3587855;39;20060;-66
2022/09/04 13:20:21;;;;;;;3.05;1.73;;;;;;;33.90;26.37;101513.41;3589432;39;20055;-67
2022/09/04 13:23:16;;;;;;;1.73;1.42;;;;;;;33.78;24.38;101517.22;3589168;39;20338;-66
2022/09/04 13:26:28;;;;;;;1.77;1.38;;;;;;;33.55;24.65;101513.19;3587745;39;20580;-65
2022/09/04 13:29:53;;;;;;;2.22;2.00;;;;;;;33.60;24.20;101510.56;3588907;39;20058;-66
2022/09/04 13:32:49;;;;;;;3.15;1.30;;;;;;;33.51;23.68;101523.94;3581835;39;20048;-67
2022/09/04 13:35:40;;;;;;;2.60;1.10;;;;;;;33.15;24.22;101516.34;3588534;39;20406;-66
2022/09/04 13:38:44;;;;;;;1.77;1.13;;;;;;;32.97;24.13;101525.50;3589745;39;20047;-65
2022/09/04 13:41:41;;;;;;;2.38;1.20;;;;;;;32.96;24.16;101520.13;3590747;39;20083;-65
2022/09/04 13:44:42;;;;;;;1.75;1.38;;;;;;;33.29;23.35;101519.84;3589904;39;20055;-66
2022/09/04 13:47:23;;;;;;;2.75;2.10;;;;;;;33.25;22.74;101513.88;3578260;39;20056;-66